createdAt,value
2022-08-09T00:00:23.389Z,80.79
2022-08-09T00:02:51.849Z,80.85
2022-08-09T00:06:15.805Z,80.81
2022-08-09T00:08:12.864Z,80.51
2022-08-09T00:10:40.615Z,80.52
2022-08-09T00:13:17.174Z,82.11
2022-08-09T00:15:57.942Z,82.09
2022-08-09T00:18:34.935Z,81.57
2022-08-09T00:21:08.483Z,82.43
2022-08-09T00:23:57.861Z,82.35
2022-08-09T00:26:29.750Z,81.85
2022-08-09T00:29:00.537Z,81.90
2022-08-09T00:31:57.651Z,83.12
2022-08-09T00:34:14.533Z,83.71
2022-08-09T00:36:47.867Z,83.81
2022-08-09T00:40:08.877Z,83.95
2022-08-09T00:44:16.377Z,83.80
2022-08-09T00:44:48.667Z,85.53
2022-08-09T00:47:16.126Z,84.24
2022-08-09T00:49:52.558Z,83.97
2022-08-09T00:52:30.298Z,84.17
2022-08-09T00:55:01.655Z,84.93
2022-08-09T00:57:34.273Z,84.66
2022-08-09T01:00:21.279Z,84.88
2022-08-09T01:02:54.933Z,85.53
2022-08-09T01:05:53.292Z,84.77
2022-08-09T01:08:31.445Z,84.41
2022-08-09T01:11:26.427Z,84.06
2022-08-09T01:14:08.018Z,85.33
2022-08-09T01:16:47.179Z,85.61
2022-08-09T01:19:51.852Z,86.93
2022-08-09T01:22:42.678Z,86.70
2022-08-09T01:25:25.124Z,88.34
2022-08-09T01:27:53.969Z,87.17
2022-08-09T01:30:33.672Z,87.40
2022-08-09T01:33:04.482Z,88.13
2022-08-09T01:35:45.876Z,87.47
2022-08-09T01:38:20.927Z,86.06
2022-08-09T01:41:04.754Z,87.29
2022-08-09T01:43:50.082Z,87.20
2022-08-09T01:46:31.647Z,86.07
2022-08-09T01:49:18.717Z,86.56
2022-08-09T01:51:54.757Z,86.17
2022-08-09T01:54:24.156Z,86.95
2022-08-09T01:56:52.620Z,86.05
2022-08-09T01:59:20.786Z,86.02
2022-08-09T02:01:59.988Z,85.64
2022-08-09T02:04:28.546Z,85.98
2022-08-09T02:07:15.300Z,85.66
2022-08-09T02:09:59.750Z,85.84
2022-08-09T02:12:29.467Z,86.83
2022-08-09T02:14:58.573Z,87.54
2022-08-09T02:18:00.799Z,86.96
2022-08-09T02:20:25.016Z,87.05
2022-08-09T02:22:59.237Z,87.04
2022-08-09T02:25:33.203Z,87.66
2022-08-09T02:28:17.894Z,88.51
2022-08-09T02:30:49.055Z,88.67
2022-08-09T02:33:23.671Z,88.40
2022-08-09T02:36:15.815Z,88.02
2022-08-09T02:38:51.982Z,87.73
2022-08-09T02:41:27.126Z,89.05
2022-08-09T02:43:56.668Z,88.12
2022-08-09T02:46:27.838Z,87.86
2022-08-09T02:48:59.644Z,88.52
2022-08-09T02:51:28.165Z,88.61
2022-08-09T02:54:05.239Z,89.75
2022-08-09T02:56:33.445Z,89.21
2022-08-09T02:59:03.736Z,89.65
2022-08-09T03:01:43.157Z,88.89
2022-08-09T03:04:20.666Z,88.83
2022-08-09T03:06:53.482Z,88.26
2022-08-09T03:09:21.391Z,88.35
2022-08-09T03:12:05.450Z,88.07
2022-08-09T03:14:36.483Z,87.89
2022-08-09T03:17:05.626Z,88.22
2022-08-09T03:19:57.811Z,89.21
2022-08-09T03:22:41.480Z,89.82
2022-08-09T03:25:26.475Z,90.17
2022-08-09T03:27:57.720Z,89.74
2022-08-09T03:30:29.228Z,89.78
2022-08-09T03:33:01.456Z,89.68
2022-08-09T03:36:07.916Z,89.92
2022-08-09T03:38:28.836Z,90.00
2022-08-09T03:40:56.279Z,89.35
2022-08-09T03:43:23.219Z,89.29
2022-08-09T03:46:04.315Z,89.25
2022-08-09T03:48:51.299Z,88.65
2022-08-09T03:51:55.660Z,88.06
2022-08-09T03:54:12.662Z,87.86
2022-08-09T03:56:40.948Z,87.85
2022-08-09T03:59:17.093Z,87.88
2022-08-09T04:01:50.100Z,88.55
2022-08-09T04:04:17.658Z,88.30
2022-08-09T04:06:49.200Z,88.52
2022-08-09T04:09:47.911Z,88.22
2022-08-09T04:12:12.056Z,88.15
2022-08-09T04:15:00.790Z,87.98
2022-08-09T04:17:27.201Z,88.05
2022-08-09T04:19:57.231Z,87.94
2022-08-09T04:22:24.648Z,87.16
2022-08-09T04:24:54.941Z,87.09
2022-08-09T04:27:22.172Z,86.70
2022-08-09T04:29:50.470Z,86.24
2022-08-09T04:32:31.218Z,85.67
2022-08-09T04:34:58.585Z,85.15
2022-08-09T04:37:46.055Z,83.66
2022-08-09T04:40:28.533Z,83.84
2022-08-09T04:43:04.704Z,82.58
2022-08-09T04:45:36.149Z,82.39
2022-08-09T04:48:19.421Z,79.27
2022-08-09T04:50:49.880Z,73.17
2022-08-09T04:53:17.145Z,71.17
2022-08-09T04:55:57.517Z,66.80
2022-08-09T04:58:26.722Z,64.05
2022-08-09T05:00:54.510Z,61.42
2022-08-09T05:03:40.411Z,58.18
2022-08-09T05:06:11.329Z,57.44
2022-08-09T05:08:38.367Z,57.96
2022-08-09T05:11:06.786Z,56.92
2022-08-09T05:13:38.643Z,54.30
2022-08-09T05:16:07.905Z,53.39
2022-08-09T05:18:50.601Z,51.38
2022-08-09T05:21:24.228Z,53.84
2022-08-09T05:23:58.116Z,54.81
2022-08-09T05:26:45.255Z,54.76
2022-08-09T05:29:21.913Z,55.86
2022-08-09T05:31:57.691Z,57.62
2022-08-09T05:34:31.206Z,59.47
2022-08-09T05:37:05.223Z,59.52
2022-08-09T05:39:42.856Z,58.35
2022-08-09T05:42:17.662Z,58.91
2022-08-09T05:44:53.425Z,58.55
2022-08-09T05:47:22.821Z,58.06
2022-08-09T05:50:30.022Z,59.74
2022-08-09T05:52:39.534Z,58.85
2022-08-09T05:55:08.945Z,57.95
2022-08-09T05:57:50.663Z,57.91
2022-08-09T06:00:25.977Z,57.76
2022-08-09T06:02:54.635Z,56.75
2022-08-09T06:05:31.083Z,56.37
2022-08-09T06:08:19.355Z,55.88
2022-08-09T06:10:55.535Z,55.98
2022-08-09T06:13:23.529Z,56.46
2022-08-09T06:15:52.269Z,55.54
2022-08-09T06:18:23.810Z,54.82
2022-08-09T06:20:54.871Z,54.59
2022-08-09T06:23:55.643Z,55.91
2022-08-09T06:26:12.704Z,56.24
2022-08-09T06:28:43.522Z,55.33
2022-08-09T06:31:10.853Z,54.77
2022-08-09T06:33:40.626Z,54.93
2022-08-09T06:36:09.441Z,54.43
2022-08-09T06:38:39.110Z,53.88
2022-08-09T06:41:18.393Z,53.19
2022-08-09T06:43:47.769Z,53.34
2022-08-09T06:46:39.089Z,52.55
2022-08-09T06:49:04.564Z,52.52
2022-08-09T06:51:33.676Z,51.68
2022-08-09T06:54:09.155Z,50.62
2022-08-09T06:56:39.482Z,51.10
2022-08-09T07:00:52.508Z,51.30
2022-08-09T07:02:03.925Z,51.84
2022-08-09T07:04:32.183Z,51.19
2022-08-09T07:07:00.612Z,50.99
2022-08-09T07:09:55.597Z,51.20
2022-08-09T07:12:20.126Z,51.57
2022-08-09T07:16:35.355Z,51.57
2022-08-09T07:17:56.455Z,53.24
2022-08-09T07:20:29.538Z,51.55
2022-08-09T07:22:56.816Z,51.20
2022-08-09T07:25:25.584Z,49.91
2022-08-09T07:27:53.214Z,49.67
2022-08-09T07:30:24.759Z,49.71
2022-08-09T07:32:52.729Z,50.21
2022-08-09T07:35:19.668Z,49.62
2022-08-09T07:37:49.132Z,48.77
2022-08-09T07:40:18.546Z,49.56
2022-08-09T07:42:56.039Z,50.30
2022-08-09T07:45:37.513Z,49.52
2022-08-09T07:48:28.342Z,49.29
2022-08-09T07:51:02.970Z,49.75
2022-08-09T07:54:05.023Z,49.12
2022-08-09T07:56:27.479Z,49.59
2022-08-09T07:58:55.471Z,49.31
2022-08-09T08:01:32.925Z,48.50
2022-08-09T08:04:02.766Z,48.35
2022-08-09T08:06:31.952Z,47.99
2022-08-09T08:09:04.986Z,48.04
2022-08-09T08:12:19.775Z,47.21
2022-08-09T08:14:21.059Z,46.68
2022-08-09T08:17:00.341Z,46.01
2022-08-09T08:19:40.586Z,45.49
2022-08-09T08:22:13.359Z,45.35
2022-08-09T08:24:44.798Z,45.27
2022-08-09T08:27:16.884Z,46.13
2022-08-09T08:29:50.214Z,44.88
2022-08-09T08:32:41.292Z,44.94
2022-08-09T08:35:07.686Z,45.39
2022-08-09T08:37:42.007Z,45.12
2022-08-09T08:40:23.152Z,44.94
2022-08-09T08:42:53.687Z,46.56
2022-08-09T08:45:50.788Z,44.78
2022-08-09T08:48:19.502Z,45.71
2022-08-09T08:50:49.211Z,43.65
2022-08-09T08:53:21.779Z,42.29
2022-08-09T08:55:49.114Z,43.00
2022-08-09T08:58:20.065Z,43.53
2022-08-09T09:00:56.888Z,42.49
2022-08-09T09:03:33.145Z,42.92
2022-08-09T09:06:05.811Z,42.07
2022-08-09T09:08:37.894Z,42.10
2022-08-09T09:11:08.373Z,41.42
2022-08-09T09:13:47.301Z,42.12
2022-08-09T09:16:34.915Z,42.14
2022-08-09T09:19:37.256Z,41.88
2022-08-09T09:22:04.282Z,40.77
2022-08-09T09:24:43.217Z,41.60
2022-08-09T09:28:03.084Z,41.81
2022-08-09T09:30:23.733Z,41.04
2022-08-09T09:33:13.808Z,41.17
2022-08-09T09:36:21.066Z,40.91
2022-08-09T09:38:57.162Z,39.12
2022-08-09T09:41:27.835Z,40.09
2022-08-09T09:44:11.436Z,41.64
2022-08-09T09:46:50.388Z,39.68
2022-08-09T09:49:31.585Z,38.81
2022-08-09T09:52:16.297Z,39.27
2022-08-09T09:55:28.743Z,39.37
2022-08-09T09:58:16.939Z,37.67
2022-08-09T10:00:53.768Z,38.78
2022-08-09T10:03:58.247Z,37.88
2022-08-09T10:06:43.474Z,36.82
2022-08-09T10:09:22.949Z,38.03
2022-08-09T10:12:14.774Z,37.23
2022-08-09T10:14:49.930Z,36.78
2022-08-09T10:17:39.764Z,38.44
2022-08-09T10:20:27.730Z,38.40
2022-08-09T10:23:13.934Z,38.32
2022-08-09T10:26:04.371Z,38.27
2022-08-09T10:28:34.236Z,37.57
2022-08-09T10:34:11.106Z,39.33
2022-08-09T10:36:36.379Z,39.64
2022-08-09T10:39:06.036Z,38.58
2022-08-09T10:41:43.107Z,38.78
2022-08-09T10:44:10.254Z,37.99
2022-08-09T10:46:57.160Z,37.61
2022-08-09T10:49:50.034Z,37.63
2022-08-09T10:52:51.771Z,36.92
2022-08-09T10:55:27.642Z,37.56
2022-08-09T10:58:00.217Z,36.57
2022-08-09T11:00:56.894Z,37.00
2022-08-09T11:03:46.999Z,36.67
2022-08-09T11:06:19.454Z,38.45
2022-08-09T11:08:51.819Z,37.71
2022-08-09T11:11:23.232Z,36.53
2022-08-09T11:14:35.439Z,36.54
2022-08-09T11:17:24.601Z,36.89
2022-08-09T11:20:11.134Z,37.11
2022-08-09T11:22:47.295Z,35.45
2022-08-09T11:25:47.554Z,34.22
2022-08-09T11:28:54.273Z,34.58
2022-08-09T11:31:49.651Z,35.11
2022-08-09T11:34:38.996Z,36.67
2022-08-09T11:37:07.820Z,37.87
2022-08-09T11:40:18.094Z,37.59
2022-08-09T11:42:49.882Z,38.34
2022-08-09T11:45:21.554Z,37.64
2022-08-09T11:47:54.006Z,36.49
2022-08-09T11:50:54.922Z,37.72
2022-08-09T11:53:43.986Z,36.55
2022-08-09T11:56:02.345Z,35.98
2022-08-09T11:58:33.621Z,35.97
2022-08-09T12:01:37.224Z,35.77
2022-08-09T12:04:04.829Z,34.77
2022-08-09T12:06:35.326Z,34.91
2022-08-09T12:09:15.045Z,34.38
2022-08-09T12:12:03.445Z,34.12
2022-08-09T12:14:40.651Z,34.22
2022-08-09T12:17:33.876Z,33.78
2022-08-09T12:20:16.482Z,33.36
2022-08-09T12:22:55.737Z,33.94
2022-08-09T12:25:36.540Z,34.22
2022-08-09T12:29:14.548Z,35.07
2022-08-09T12:30:59.870Z,33.94
2022-08-09T12:33:51.114Z,33.96
2022-08-09T12:36:27.328Z,34.34
2022-08-09T12:38:58.701Z,35.77
2022-08-09T12:41:36.314Z,36.00
2022-08-09T12:44:12.692Z,36.56
2022-08-09T12:46:49.067Z,36.35
2022-08-09T12:49:17.530Z,35.03
2022-08-09T12:52:01.942Z,36.05
2022-08-09T12:56:10.631Z,36.45
2022-08-09T12:57:38.683Z,37.06
2022-08-09T13:00:19.109Z,36.69
2022-08-09T13:02:58.583Z,36.68
2022-08-09T13:05:35.574Z,36.38
2022-08-09T13:08:21.100Z,35.98
2022-08-09T13:11:13.381Z,36.96
2022-08-09T13:14:41.192Z,36.63
2022-08-09T13:16:48.295Z,36.08
2022-08-09T13:20:09.336Z,35.44
2022-08-09T13:22:35.478Z,35.83
2022-08-09T13:25:13.903Z,35.85
2022-08-09T13:27:48.167Z,36.58
2022-08-09T13:30:50.543Z,36.34
2022-08-09T13:33:11.932Z,36.46
2022-08-09T13:36:41.768Z,37.04
2022-08-09T13:38:54.937Z,36.85
2022-08-09T13:41:58.322Z,36.31
2022-08-09T13:44:09.209Z,36.06
2022-08-09T13:47:13.058Z,36.23
2022-08-09T13:49:33.987Z,36.59
2022-08-09T13:52:09.270Z,36.39
2022-08-09T13:54:42.838Z,36.20
2022-08-09T13:57:36.482Z,36.15
2022-08-09T14:00:05.699Z,35.94
2022-08-09T14:02:33.036Z,35.79
2022-08-09T14:05:03.507Z,35.08
2022-08-09T14:07:41.133Z,35.63
2022-08-09T14:10:17.605Z,35.63
2022-08-09T14:12:58.675Z,36.19
2022-08-09T14:16:07.287Z,35.63
2022-08-09T14:18:27.482Z,35.46
2022-08-09T14:20:57.184Z,35.45
2022-08-09T14:23:40.132Z,36.29
2022-08-09T14:26:11.273Z,35.91
2022-08-09T14:28:38.583Z,36.38
2022-08-09T14:31:07.394Z,36.03
2022-08-09T14:33:38.133Z,36.10
2022-08-09T14:36:20.766Z,36.85
2022-08-09T14:38:52.823Z,36.39
2022-08-09T14:41:34.797Z,36.80
2022-08-09T14:44:07.166Z,36.10
2022-08-09T14:46:58.131Z,35.95
2022-08-09T14:49:25.530Z,36.44
2022-08-09T14:51:58.197Z,35.80
2022-08-09T14:54:28.117Z,35.91
2022-08-09T14:56:58.666Z,36.41
2022-08-09T14:59:28.645Z,36.15
2022-08-09T15:01:56.070Z,35.88
2022-08-09T15:04:23.481Z,36.40
2022-08-09T15:06:51.677Z,35.93
2022-08-09T15:10:03.626Z,36.26
2022-08-09T15:12:09.809Z,37.30
2022-08-09T15:14:39.101Z,37.24
2022-08-09T15:17:09.873Z,37.04
2022-08-09T15:19:54.450Z,36.92
2022-08-09T15:22:26.874Z,36.58
2022-08-09T15:24:54.455Z,36.83
2022-08-09T15:27:21.931Z,36.74
2022-08-09T15:30:57.173Z,36.82
2022-08-09T15:32:37.568Z,36.45
2022-08-09T15:35:17.829Z,36.68
2022-08-09T15:37:57.062Z,37.10
2022-08-09T15:40:38.361Z,36.62
2022-08-09T15:43:13.486Z,37.17
2022-08-09T15:46:07.287Z,37.31
2022-08-09T15:48:31.759Z,37.67
2022-08-09T15:51:11.423Z,37.30
2022-08-09T15:54:03.885Z,37.48
2022-08-09T15:56:37.100Z,37.47
2022-08-09T15:59:04.363Z,37.21
2022-08-09T16:01:35.371Z,37.08
2022-08-09T16:04:03.046Z,37.02
2022-08-09T16:06:35.559Z,37.17
2022-08-09T16:09:05.667Z,36.74
2022-08-09T16:11:33.046Z,36.90
2022-08-09T16:14:06.901Z,36.57
2022-08-09T16:16:39.041Z,36.92
2022-08-09T16:19:10.151Z,36.81
2022-08-09T16:21:42.262Z,36.68
2022-08-09T16:24:33.864Z,36.82
2022-08-09T16:27:01.997Z,36.87
2022-08-09T16:29:37.101Z,36.98
2022-08-09T16:32:33.245Z,36.50
2022-08-09T16:35:02.341Z,36.55
2022-08-09T16:37:55.257Z,36.50
2022-08-09T16:40:20.362Z,36.66
2022-08-09T16:42:48.319Z,36.67
2022-08-09T16:45:21.354Z,36.97
2022-08-09T16:48:42.404Z,37.43
2022-08-09T16:50:38.659Z,37.39
2022-08-09T16:53:11.891Z,37.49
2022-08-09T16:55:57.807Z,37.55
2022-08-09T16:58:26.026Z,38.09
2022-08-09T17:00:53.575Z,38.47
2022-08-09T17:03:22.965Z,38.42
2022-08-09T17:06:06.771Z,38.34
2022-08-09T17:09:02.722Z,38.52
2022-08-09T17:11:33.084Z,38.26
2022-08-09T17:14:07.548Z,38.35
2022-08-09T17:16:38.346Z,38.72
2022-08-09T17:19:05.541Z,38.96
2022-08-09T17:21:32.421Z,39.39
2022-08-09T17:24:27.136Z,39.76
2022-08-09T17:26:47.810Z,40.16
2022-08-09T17:29:21.131Z,40.78
2022-08-09T17:31:49.153Z,41.38
2022-08-09T17:35:02.025Z,41.55
2022-08-09T17:37:03.878Z,41.85
2022-08-09T17:39:48.263Z,42.21
2022-08-09T17:42:42.174Z,42.57
2022-08-09T17:45:06.570Z,43.00
2022-08-09T17:47:49.796Z,43.55
2022-08-09T17:50:24.876Z,43.80
2022-08-09T17:53:04.761Z,44.49
2022-08-09T17:55:49.379Z,45.20
2022-08-09T17:58:19.168Z,45.20
2022-08-09T18:00:48.008Z,45.32
2022-08-09T18:03:15.383Z,44.64
2022-08-09T18:05:45.137Z,42.54
2022-08-09T18:08:22.019Z,42.95
2022-08-09T18:11:01.013Z,41.20
2022-08-09T18:13:42.962Z,40.22
2022-08-09T18:16:17.503Z,40.54
2022-08-09T18:18:57.322Z,40.43
2022-08-09T18:21:26.337Z,40.42
2022-08-09T18:24:10.773Z,40.49
2022-08-09T18:26:46.481Z,41.01
2022-08-09T18:30:39.958Z,39.62
2022-08-09T18:32:02.899Z,39.91
2022-08-09T18:34:31.748Z,40.00
2022-08-09T18:37:00.704Z,39.54
2022-08-09T18:39:32.650Z,39.31
2022-08-09T18:42:08.891Z,39.32
2022-08-09T18:44:36.056Z,39.54
2022-08-09T18:47:08.329Z,39.21
2022-08-09T18:49:46.705Z,40.02
2022-08-09T18:52:16.098Z,39.52
2022-08-09T18:54:52.635Z,39.69
2022-08-09T18:57:22.445Z,39.75
2022-08-09T18:59:56.339Z,40.32
2022-08-09T19:02:32.314Z,40.17
2022-08-09T19:05:15.201Z,40.14
2022-08-09T19:08:04.613Z,40.01
2022-08-09T19:10:37.741Z,39.17
2022-08-09T19:13:19.290Z,39.67
2022-08-09T19:15:49.969Z,39.87
2022-08-09T19:18:33.003Z,39.23
2022-08-09T19:21:01.428Z,39.51
2022-08-09T19:24:39.489Z,39.40
2022-08-09T19:26:17.136Z,40.43
2022-08-09T19:28:48.784Z,39.29
2022-08-09T19:31:16.832Z,39.68
2022-08-09T19:33:43.797Z,40.00
2022-08-09T19:36:11.796Z,43.14
2022-08-09T19:38:40.550Z,44.21
2022-08-09T19:41:10.269Z,44.39
2022-08-09T19:44:00.384Z,44.18
2022-08-09T19:46:34.237Z,44.57
2022-08-09T19:50:09.151Z,44.03
2022-08-09T19:51:55.515Z,44.38
2022-08-09T19:54:26.950Z,44.29
2022-08-09T19:56:58.684Z,44.15
2022-08-09T19:59:39.737Z,44.47
2022-08-09T20:04:07.480Z,44.47
2022-08-09T20:05:10.364Z,44.48
2022-08-09T20:07:59.001Z,44.43
2022-08-09T20:10:34.561Z,44.43
2022-08-09T20:13:05.135Z,44.95
2022-08-09T20:16:34.642Z,44.85
2022-08-09T20:18:21.326Z,45.15
2022-08-09T20:20:51.061Z,45.46
2022-08-09T20:23:21.154Z,45.75
2022-08-09T20:25:52.144Z,45.74
2022-08-09T20:28:27.788Z,45.78
2022-08-09T20:31:04.682Z,45.88
2022-08-09T20:33:41.059Z,46.17
2022-08-09T20:36:11.218Z,46.44
2022-08-09T20:39:06.683Z,46.14
2022-08-09T20:41:34.868Z,46.32
2022-08-09T20:44:09.786Z,46.28
2022-08-09T20:46:43.226Z,46.24
2022-08-09T20:49:13.062Z,46.48
2022-08-09T20:51:42.108Z,46.80
2022-08-09T20:54:17.168Z,47.29
2022-08-09T20:56:49.907Z,47.49
2022-08-09T20:59:25.034Z,47.13
2022-08-09T21:02:10.582Z,47.34
2022-08-09T21:05:57.786Z,47.43
2022-08-09T21:07:30.316Z,47.14
2022-08-09T21:10:08.343Z,47.07
2022-08-09T21:12:37.175Z,45.74
2022-08-09T21:15:04.782Z,46.79
2022-08-09T21:18:21.641Z,44.82
2022-08-09T21:20:26.393Z,45.30
2022-08-09T21:22:54.463Z,44.73
2022-08-09T21:25:44.452Z,44.74
2022-08-09T21:28:34.187Z,45.15
2022-08-09T21:31:17.580Z,45.29
2022-08-09T21:33:52.356Z,45.77
2022-08-09T21:36:23.055Z,44.91
2022-08-09T21:38:51.038Z,45.25
2022-08-09T21:42:04.117Z,46.01
2022-08-09T21:44:33.217Z,46.34
2022-08-09T21:47:05.811Z,46.51
2022-08-09T21:49:40.329Z,46.59
2022-08-09T21:52:16.278Z,46.40
2022-08-09T21:54:57.217Z,45.91
2022-08-09T21:57:39.586Z,45.99
2022-08-09T22:00:34.494Z,46.05
2022-08-09T22:03:05.673Z,46.81
2022-08-09T22:05:37.637Z,46.64
2022-08-09T22:08:13.487Z,46.83
2022-08-09T22:11:00.876Z,47.02
2022-08-09T22:13:34.882Z,45.93
2022-08-09T22:16:07.458Z,46.57
2022-08-09T22:18:35.277Z,46.42
2022-08-09T22:21:10.052Z,45.97
2022-08-09T22:23:59.415Z,46.11
2022-08-09T22:26:35.341Z,46.13
2022-08-09T22:29:09.398Z,46.57
2022-08-09T22:31:37.987Z,46.43
2022-08-09T22:34:17.595Z,46.78
2022-08-09T22:36:47.674Z,47.20
2022-08-09T22:39:46.608Z,47.24
2022-08-09T22:42:03.945Z,47.70
2022-08-09T22:44:33.284Z,47.76
2022-08-09T22:48:11.987Z,47.86
2022-08-09T22:49:51.954Z,47.82
2022-08-09T22:52:19.845Z,47.90
2022-08-09T22:54:47.549Z,48.24
2022-08-09T22:57:15.162Z,47.41
2022-08-09T22:59:58.442Z,47.73
2022-08-09T23:02:27.318Z,47.44
2022-08-09T23:04:55.424Z,46.80
2022-08-09T23:08:22.730Z,47.20
2022-08-09T23:10:31.832Z,46.93
2022-08-09T23:12:59.444Z,46.88
2022-08-09T23:15:27.345Z,47.08
2022-08-09T23:17:54.275Z,47.59
2022-08-09T23:20:21.761Z,47.91
2022-08-09T23:22:48.728Z,47.69
2022-08-09T23:25:15.556Z,48.03
2022-08-09T23:28:13.947Z,48.13
2022-08-09T23:30:30.091Z,48.43
2022-08-09T23:32:56.894Z,48.25
2022-08-09T23:35:24.122Z,48.37
2022-08-09T23:37:50.979Z,48.32
2022-08-09T23:40:18.156Z,48.71
2022-08-09T23:42:45.092Z,48.57
2022-08-09T23:45:37.139Z,48.74
2022-08-09T23:47:59.025Z,49.20
2022-08-09T23:50:26.271Z,49.48
2022-08-09T23:52:53.214Z,49.51
2022-08-09T23:55:20.165Z,49.81
2022-08-09T23:58:07.866Z,50.06
